createdAt,value
2023-04-10T00:01:25.632Z,17.92
2023-04-10T00:04:03.737Z,19.58
2023-04-10T00:06:36.752Z,19.42
2023-04-10T00:09:06.766Z,19.77
2023-04-10T00:11:34.732Z,22.08
2023-04-10T00:14:03.722Z,22.42
2023-04-10T00:16:34.253Z,23.30
2023-04-10T00:19:02.570Z,24.52
2023-04-10T00:21:42.747Z,27.15
2023-04-10T00:24:13.139Z,28.05
2023-04-10T00:26:48.539Z,27.88
2023-04-10T00:29:17.068Z,27.58
2023-04-10T00:31:55.184Z,26.70
2023-04-10T00:34:26.393Z,29.92
2023-04-10T00:36:55.558Z,29.58
2023-04-10T00:39:23.708Z,30.70
2023-04-10T00:41:51.712Z,31.23
2023-04-10T00:44:19.784Z,31.75
2023-04-10T00:46:48.195Z,32.22
2023-04-10T00:49:18.627Z,31.17
2023-04-10T00:51:47.185Z,32.22
2023-04-10T00:54:17.708Z,29.40
2023-04-10T00:56:48.170Z,32.08
2023-04-10T00:59:16.757Z,29.98
2023-04-10T01:01:45.431Z,30.92
2023-04-10T01:04:16.538Z,33.35
2023-04-10T01:06:59.125Z,33.67
2023-04-10T01:09:56.991Z,32.90
2023-04-10T01:12:28.214Z,33.47
2023-04-10T01:15:04.694Z,35.78
2023-04-10T01:17:36.873Z,33.88
2023-04-10T01:20:13.947Z,33.60
2023-04-10T01:22:59.175Z,36.28
2023-04-10T01:25:36.366Z,37.47
2023-04-10T01:28:46.459Z,38.05
2023-04-10T01:31:21.993Z,39.10
2023-04-10T01:33:54.692Z,36.80
2023-04-10T01:36:28.459Z,35.97
2023-04-10T01:38:57.290Z,35.85
2023-04-10T01:41:26.911Z,34.90
2023-04-10T01:43:55.954Z,34.13
2023-04-10T01:46:24.573Z,34.20
2023-04-10T01:48:53.522Z,34.53
2023-04-10T01:51:21.981Z,34.70
2023-04-10T01:53:50.374Z,34.33
2023-04-10T01:56:24.325Z,34.80
2023-04-10T01:58:53.909Z,34.90
2023-04-10T02:01:29.546Z,35.35
2023-04-10T02:04:00.520Z,40.30
2023-04-10T02:06:51.913Z,46.83
2023-04-10T02:09:27.476Z,43.28
2023-04-10T02:12:08.240Z,44.28
2023-04-10T02:14:38.895Z,42.33
2023-04-10T02:17:09.645Z,42.20
2023-04-10T02:19:38.933Z,42.55
2023-04-10T02:22:06.882Z,41.63
2023-04-10T02:24:35.886Z,41.58
2023-04-10T02:27:03.968Z,41.17
2023-04-10T02:29:37.648Z,43.22
2023-04-10T02:32:08.163Z,40.25
2023-04-10T02:34:36.846Z,42.78
2023-04-10T02:37:07.160Z,43.08
2023-04-10T02:39:37.272Z,43.72
2023-04-10T02:42:06.824Z,44.80
2023-04-10T02:44:35.845Z,44.17
2023-04-10T02:47:04.493Z,44.03
2023-04-10T02:49:35.839Z,41.35
2023-04-10T02:52:12.138Z,41.13
2023-04-10T02:54:40.919Z,44.20
2023-04-10T02:57:09.855Z,46.13
2023-04-10T02:59:43.666Z,45.85
2023-04-10T03:02:12.099Z,47.25
2023-04-10T03:04:41.159Z,50.55
2023-04-10T03:07:09.768Z,52.83
2023-04-10T03:09:39.832Z,51.22
2023-04-10T03:12:08.371Z,51.90
2023-04-10T03:14:37.747Z,50.63
2023-04-10T03:17:06.045Z,52.00
2023-04-10T03:19:35.191Z,51.47
2023-04-10T03:22:03.831Z,51.58
2023-04-10T03:24:33.163Z,50.25
2023-04-10T03:27:04.437Z,48.92
2023-04-10T03:29:32.854Z,47.58
2023-04-10T03:32:02.925Z,49.13
2023-04-10T03:34:32.096Z,49.67
2023-04-10T03:37:00.401Z,49.22
2023-04-10T03:39:28.333Z,48.13
2023-04-10T03:41:57.182Z,49.20
2023-04-10T03:44:26.475Z,48.53
2023-04-10T03:46:56.413Z,48.38
2023-04-10T03:49:25.651Z,50.45
2023-04-10T03:52:06.737Z,48.80
2023-04-10T03:54:37.860Z,49.95
2023-04-10T03:57:08.582Z,47.50
2023-04-10T03:59:38.908Z,45.80
2023-04-10T04:02:15.108Z,44.47
2023-04-10T04:04:44.583Z,44.35
2023-04-10T04:07:42.212Z,42.42
2023-04-10T04:10:21.967Z,42.45
2023-04-10T04:13:06.054Z,38.45
2023-04-10T04:15:54.048Z,38.60
2023-04-10T04:18:42.862Z,39.25
2023-04-10T04:21:20.376Z,36.83
2023-04-10T04:24:18.376Z,38.50
2023-04-10T04:27:02.972Z,37.15
2023-04-10T04:29:43.847Z,35.38
2023-04-10T04:32:40.677Z,36.72
2023-04-10T04:35:27.877Z,36.10
2023-04-10T04:38:29.705Z,35.70
2023-04-10T04:41:21.114Z,34.55
2023-04-10T05:20:42.832Z,34.83
2023-04-10T05:38:12.010Z,19.55
2023-04-10T05:40:49.268Z,18.25
2023-04-10T05:43:36.676Z,21.63
2023-04-10T05:46:34.385Z,30.63
2023-04-10T06:04:44.960Z,17.20
2023-04-10T06:07:17.901Z,16.52
2023-04-10T06:09:46.026Z,17.85
2023-04-10T06:12:14.345Z,17.45
2023-04-10T06:14:47.902Z,18.33
2023-04-10T06:17:21.715Z,18.20
2023-04-10T06:19:52.704Z,18.58
2023-04-10T06:22:25.445Z,19.13
2023-04-10T06:24:53.664Z,18.55
2023-04-10T06:27:24.123Z,17.52
2023-04-10T06:29:54.465Z,17.92
2023-04-10T06:32:46.742Z,17.75
2023-04-10T06:35:16.417Z,16.80
2023-04-10T06:37:48.875Z,18.48
2023-04-10T06:40:17.289Z,14.93
2023-04-10T06:42:45.659Z,16.52
2023-04-10T06:45:25.228Z,15.30
2023-04-10T06:47:56.805Z,16.13
2023-04-10T06:50:26.307Z,14.02
2023-04-10T06:52:56.740Z,15.68
2023-04-10T06:55:29.260Z,14.13
2023-04-10T06:58:18.291Z,14.68
2023-04-10T07:00:47.411Z,14.52
2023-04-10T07:03:16.691Z,13.88
2023-04-10T07:05:45.314Z,11.23
2023-04-10T07:08:13.319Z,11.85
2023-04-10T07:10:42.638Z,12.23
2023-04-10T07:13:11.050Z,11.15
2023-04-10T07:15:41.258Z,9.95
2023-04-10T07:18:13.803Z,10.85
2023-04-10T07:20:44.690Z,8.98
2023-04-10T07:23:22.871Z,9.45
2023-04-10T07:26:03.225Z,8.88
2023-04-10T07:31:18.186Z,9.02
2023-04-10T07:33:47.017Z,8.98
2023-04-10T07:36:36.471Z,9.63
2023-04-10T07:39:05.239Z,8.13
2023-04-10T07:41:39.324Z,7.55
2023-04-10T07:44:09.121Z,7.38
2023-04-10T07:46:39.232Z,7.72
2023-04-10T07:49:08.710Z,8.55
2023-04-10T07:51:37.508Z,8.13
2023-04-10T07:54:07.334Z,6.80
2023-04-10T07:56:38.861Z,6.63
2023-04-10T07:59:09.707Z,5.75
2023-04-10T08:01:38.587Z,7.90
2023-04-10T08:04:09.659Z,5.50
2023-04-10T08:06:40.919Z,6.70
2023-04-10T08:09:09.209Z,5.60
2023-04-10T08:11:39.900Z,5.40
2023-04-10T08:14:08.042Z,5.50
2023-04-10T08:16:36.635Z,4.63
2023-04-10T08:19:08.479Z,4.57
2023-04-10T08:21:45.146Z,5.47
2023-04-10T08:24:13.232Z,5.05
2023-04-10T08:27:01.575Z,5.47
2023-04-10T08:29:30.932Z,6.25
2023-04-10T08:32:01.277Z,5.07
2023-04-10T08:34:29.459Z,5.63
2023-04-10T08:37:05.468Z,5.57
2023-04-10T08:39:37.001Z,5.13
2023-04-10T08:42:06.796Z,4.88
2023-04-10T08:44:38.343Z,4.72
2023-04-10T08:47:06.928Z,4.82
2023-04-10T08:49:56.397Z,4.22
2023-04-10T08:52:27.478Z,4.35
2023-04-10T08:54:56.803Z,4.45
2023-04-10T08:57:28.567Z,4.65
2023-04-10T08:59:58.488Z,4.53
2023-04-10T09:02:27.166Z,4.15
2023-04-10T09:04:55.824Z,4.53
2023-04-10T09:07:24.284Z,4.32
2023-04-10T09:09:53.669Z,4.22
2023-04-10T09:12:27.776Z,4.57
2023-04-10T09:14:59.196Z,4.57
2023-04-10T09:17:30.519Z,25.20
2023-04-10T09:20:22.778Z,5.13
2023-04-10T09:22:51.502Z,4.45
2023-04-10T09:25:41.225Z,4.60
2023-04-10T09:28:10.184Z,4.95
2023-04-10T09:30:43.042Z,5.22
2023-04-10T09:33:24.444Z,4.18
2023-04-10T09:35:52.595Z,4.10
2023-04-10T09:38:23.764Z,3.80
2023-04-10T09:40:55.086Z,4.22
2023-04-10T09:43:27.386Z,4.00
2023-04-10T09:45:58.005Z,4.85
2023-04-10T09:48:29.404Z,4.70
2023-04-10T09:50:57.847Z,4.10
2023-04-10T09:53:27.729Z,3.90
2023-04-10T09:55:56.639Z,4.00
2023-04-10T09:58:34.935Z,4.05
2023-04-10T10:01:23.022Z,4.53
2023-04-10T10:03:53.353Z,4.38
2023-04-10T10:06:24.958Z,4.10
2023-04-10T10:09:05.935Z,4.13
2023-04-10T10:11:35.641Z,3.25
2023-04-10T10:14:11.283Z,3.60
2023-04-10T10:16:44.867Z,4.30
2023-04-10T10:19:28.580Z,4.82
2023-04-10T10:22:02.062Z,5.43
2023-04-10T10:24:31.903Z,7.15
2023-04-10T10:27:01.521Z,4.60
2023-04-10T10:29:32.515Z,4.45
2023-04-10T10:32:03.203Z,4.35
2023-04-10T10:34:37.869Z,4.38
2023-04-10T10:37:10.960Z,4.20
2023-04-10T10:40:13.288Z,3.90
2023-04-10T10:42:43.221Z,4.03
2023-04-10T10:45:14.251Z,5.30
2023-04-10T10:47:54.835Z,4.25
2023-04-10T10:50:24.949Z,3.70
2023-04-10T10:52:57.974Z,3.75
2023-04-10T10:55:27.741Z,4.15
2023-04-10T10:58:00.606Z,4.32
2023-04-10T11:01:24.792Z,12.27
2023-04-10T11:03:54.903Z,4.68
2023-04-10T11:06:44.695Z,4.35
2023-04-10T11:09:56.708Z,3.40
2023-04-10T11:12:34.810Z,3.92
2023-04-10T11:15:33.243Z,4.15
2023-04-10T11:18:03.491Z,4.45
2023-04-10T11:20:38.319Z,3.63
2023-04-10T11:23:11.390Z,2.70
2023-04-10T11:26:11.538Z,2.97
2023-04-10T11:28:45.640Z,4.28
2023-04-10T11:31:26.853Z,4.40
2023-04-10T11:34:02.533Z,3.85
2023-04-10T11:36:39.576Z,3.20
2023-04-10T11:39:11.680Z,3.45
2023-04-10T11:41:46.121Z,3.60
2023-04-10T11:44:52.674Z,3.33
2023-04-10T11:47:23.882Z,4.45
2023-04-10T11:50:00.950Z,3.22
2023-04-10T11:52:33.080Z,3.00
2023-04-10T11:55:04.803Z,3.53
2023-04-10T11:57:37.866Z,3.10
2023-04-10T12:00:32.703Z,2.85
2023-04-10T12:03:55.196Z,4.50
2023-04-10T12:06:28.168Z,3.45
2023-04-10T12:09:01.551Z,3.75
2023-04-10T12:11:30.853Z,4.38
2023-04-10T12:14:03.559Z,3.92
2023-04-10T12:16:33.893Z,2.90
2023-04-10T12:19:04.616Z,3.50
2023-04-10T12:21:39.318Z,3.53
2023-04-10T12:24:10.713Z,3.13
2023-04-10T12:26:51.959Z,3.10
2023-04-10T12:29:30.869Z,3.67
2023-04-10T12:32:20.180Z,3.47
2023-04-10T12:34:58.716Z,3.00
2023-04-10T12:37:52.577Z,2.80
2023-04-10T12:40:22.982Z,3.35
2023-04-10T12:42:53.160Z,3.58
2023-04-10T12:45:21.805Z,3.20
2023-04-10T12:47:54.930Z,3.20
2023-04-10T12:50:27.891Z,3.47
2023-04-10T12:53:22.063Z,3.00
2023-04-10T12:56:00.969Z,3.60
2023-04-10T12:58:50.161Z,3.50
2023-04-10T13:01:30.631Z,3.30
2023-04-10T13:03:59.409Z,3.47
2023-04-10T13:06:33.631Z,3.30
2023-04-10T13:09:11.407Z,3.20
2023-04-10T13:11:43.662Z,3.35
2023-04-10T13:14:14.676Z,3.55
2023-04-10T13:16:43.863Z,3.15
2023-04-10T13:19:17.489Z,3.42
2023-04-10T13:21:54.845Z,3.67
2023-04-10T13:24:46.332Z,2.88
2023-04-10T13:27:16.656Z,3.15
2023-04-10T13:29:56.958Z,2.78
2023-04-10T13:32:28.022Z,3.35
2023-04-10T13:34:59.700Z,3.30
2023-04-10T13:38:03.424Z,3.33
2023-04-10T13:40:34.321Z,3.63
2023-04-10T13:43:06.578Z,3.03
2023-04-10T13:45:35.498Z,2.90
2023-04-10T13:48:07.718Z,3.08
2023-04-10T13:50:49.389Z,3.40
2023-04-10T13:53:20.086Z,3.47
2023-04-10T13:55:51.960Z,2.88
2023-04-10T14:06:08.772Z,3.90
2023-04-10T14:08:42.737Z,4.38
2023-04-10T14:11:11.615Z,4.10
2023-04-10T14:13:39.730Z,3.92
2023-04-10T14:16:10.682Z,3.58
2023-04-10T14:19:12.247Z,4.22
2023-04-10T14:21:45.878Z,4.13
2023-04-10T14:24:16.556Z,4.28
2023-04-10T14:26:53.849Z,3.63
2023-04-10T14:29:36.078Z,3.55
2023-04-10T14:32:14.886Z,3.67
2023-04-10T14:34:44.008Z,3.72
2023-04-10T14:37:15.286Z,3.75
2023-04-10T14:39:44.283Z,3.85
2023-04-10T14:42:15.980Z,3.75
2023-04-10T14:44:44.107Z,4.47
2023-04-10T14:47:12.932Z,5.30
2023-04-10T14:50:49.578Z,5.13
2023-04-10T14:53:36.193Z,4.85
2023-04-10T15:06:06.072Z,4.97
2023-04-10T15:09:39.462Z,5.82
2023-04-10T15:12:16.904Z,5.45
2023-04-10T15:21:04.027Z,6.00
2023-04-10T15:27:23.344Z,6.20
2023-04-10T15:35:37.220Z,7.80
2023-04-10T15:38:51.714Z,8.35
2023-04-10T15:41:34.055Z,8.45
2023-04-10T16:09:29.852Z,8.88
2023-04-10T16:32:58.726Z,5.80
2023-04-10T16:36:05.538Z,5.65
2023-04-10T16:38:38.941Z,6.25
2023-04-10T16:41:07.527Z,6.22
2023-04-10T16:44:11.987Z,5.80
2023-04-10T16:46:51.622Z,5.70
2023-04-10T16:50:32.579Z,5.72
2023-04-10T16:58:54.205Z,6.00
2023-04-10T17:01:27.604Z,6.03
2023-04-10T17:04:21.912Z,6.68
2023-04-10T17:12:28.552Z,7.32
2023-04-10T17:15:05.313Z,6.25
2023-04-10T17:17:43.243Z,6.60
2023-04-10T17:20:20.479Z,7.85
2023-04-10T17:24:00.078Z,7.80
2023-04-10T17:26:37.001Z,9.40
2023-04-10T17:29:10.686Z,7.82
2023-04-10T17:31:46.026Z,7.93
2023-04-10T17:48:54.209Z,8.75
2023-04-10T18:10:25.590Z,7.63
2023-04-10T18:12:59.155Z,8.65
2023-04-10T18:15:37.186Z,8.85
2023-04-10T18:23:40.858Z,9.00
2023-04-10T18:27:37.873Z,9.18
2023-04-10T18:31:16.269Z,9.23
2023-04-10T18:34:56.749Z,10.57
2023-04-10T18:38:08.331Z,9.00
2023-04-10T18:46:32.972Z,9.23
2023-04-10T19:49:35.836Z,7.38
2023-04-10T19:52:06.988Z,7.82
2023-04-10T19:54:36.502Z,7.43
2023-04-10T19:57:05.831Z,7.68
2023-04-10T19:59:36.774Z,7.95
2023-04-10T20:02:05.247Z,7.68
2023-04-10T20:04:35.026Z,7.60
2023-04-10T20:07:05.555Z,7.40
2023-04-10T20:09:35.140Z,7.60
2023-04-10T20:12:04.587Z,7.57
2023-04-10T20:14:33.861Z,7.15
2023-04-10T20:17:02.648Z,7.50
2023-04-10T20:19:32.104Z,7.68
2023-04-10T20:22:02.479Z,7.68
2023-04-10T20:24:31.006Z,6.93
2023-04-10T20:27:04.073Z,8.60
2023-04-10T20:29:32.053Z,8.38
2023-04-10T20:32:00.180Z,8.32
2023-04-10T20:34:28.814Z,7.70
2023-04-10T20:36:58.880Z,7.45
2023-04-10T20:39:26.878Z,7.93
2023-04-10T20:41:54.842Z,8.20
2023-04-10T20:44:24.856Z,8.00
2023-04-10T20:46:53.295Z,7.80
2023-04-10T20:49:21.440Z,7.53
2023-04-10T20:51:49.425Z,7.68
2023-04-10T20:54:19.608Z,7.57
2023-04-10T20:56:47.773Z,7.50
2023-04-10T20:59:17.146Z,8.32
2023-04-10T21:01:45.968Z,8.13
2023-04-10T21:04:14.311Z,7.80
2023-04-10T21:06:42.415Z,9.23
2023-04-10T21:09:10.574Z,7.47
2023-04-10T21:11:38.768Z,7.20
2023-04-10T21:14:10.427Z,8.23
2023-04-10T21:16:42.535Z,7.68
2023-04-10T21:19:10.913Z,7.78
2023-04-10T21:21:46.634Z,7.80
2023-04-10T21:24:14.725Z,7.60
2023-04-10T21:26:44.126Z,7.35
2023-04-10T21:29:14.774Z,7.65
2023-04-10T21:31:45.202Z,7.00
2023-04-10T21:34:17.747Z,6.40
2023-04-10T21:36:49.941Z,6.50
2023-04-10T21:39:18.402Z,6.68
2023-04-10T21:41:46.751Z,7.25
2023-04-10T21:44:16.363Z,7.28
2023-04-10T21:46:49.202Z,7.63
2023-04-10T21:49:17.918Z,8.30
2023-04-10T21:51:46.053Z,8.07
2023-04-10T21:54:14.106Z,7.50
2023-04-10T21:56:43.891Z,7.65
2023-04-10T21:59:11.904Z,6.80
2023-04-10T22:01:43.945Z,6.82
2023-04-10T22:04:12.656Z,6.10
2023-04-10T22:06:42.388Z,6.38
2023-04-10T22:09:11.332Z,6.38
2023-04-10T22:11:39.381Z,6.70
2023-04-10T22:14:18.006Z,6.45
2023-04-10T22:16:47.764Z,6.85
2023-04-10T22:19:15.946Z,5.65
2023-04-10T22:21:44.546Z,6.72
2023-04-10T22:24:12.920Z,6.85
2023-04-10T22:26:42.337Z,5.90
2023-04-10T22:29:13.941Z,6.50
2023-04-10T22:31:42.428Z,6.45
2023-04-10T22:34:11.044Z,5.95
2023-04-10T22:36:40.172Z,6.18
2023-04-10T22:39:08.241Z,6.60
2023-04-10T22:41:38.914Z,6.20
2023-04-10T22:44:07.584Z,6.05
2023-04-10T22:46:41.053Z,7.07
2023-04-10T22:49:09.359Z,5.78
2023-04-10T22:51:37.319Z,6.10
2023-04-10T22:54:06.368Z,6.03
2023-04-10T22:56:35.370Z,6.65
2023-04-10T22:59:09.683Z,6.75
2023-04-10T23:01:38.576Z,6.75
2023-04-10T23:04:06.710Z,7.45
2023-04-10T23:06:35.810Z,7.13
2023-04-10T23:09:05.381Z,7.82
2023-04-10T23:11:36.849Z,8.45
2023-04-10T23:14:04.902Z,9.25
2023-04-10T23:16:33.920Z,8.30
2023-04-10T23:19:02.102Z,8.07
2023-04-10T23:21:32.736Z,8.38
2023-04-10T23:24:01.505Z,7.72
2023-04-10T23:26:32.416Z,8.40
2023-04-10T23:29:01.562Z,7.15
2023-04-10T23:31:30.168Z,8.10
2023-04-10T23:33:58.479Z,8.30
2023-04-10T23:36:27.438Z,8.68
2023-04-10T23:38:55.824Z,9.15
2023-04-10T23:41:24.166Z,8.45
2023-04-10T23:43:52.662Z,7.88
2023-04-10T23:46:21.326Z,9.02
2023-04-10T23:48:54.991Z,9.02
2023-04-10T23:51:24.981Z,7.75
2023-04-10T23:53:54.200Z,8.00
2023-04-10T23:56:29.170Z,8.60
2023-04-10T23:58:57.413Z,8.32
